sensor_id;sensor_type;location;lat;lon;timestamp;P1;durP1;ratioP1;P2;durP2;ratioP2
52268;SDS011;38224;50.950;4.100;2023-04-24T00:02:22;30.15;;;16.50;;
52268;SDS011;38224;50.950;4.100;2023-04-24T00:04:47;32.10;;;18.27;;
52268;SDS011;38224;50.950;4.100;2023-04-24T00:07:14;33.00;;;16.88;;
52268;SDS011;38224;50.950;4.100;2023-04-24T00:09:42;30.45;;;16.42;;
52268;SDS011;38224;50.950;4.100;2023-04-24T00:12:07;35.60;;;15.70;;
52268;SDS011;38224;50.950;4.100;2023-04-24T00:14:33;34.70;;;16.95;;
52268;SDS011;38224;50.950;4.100;2023-04-24T00:16:59;35.20;;;17.10;;
52268;SDS011;38224;50.950;4.100;2023-04-24T00:19:25;30.93;;;17.07;;
52268;SDS011;38224;50.950;4.100;2023-04-24T00:21:50;28.65;;;15.73;;
52268;SDS011;38224;50.950;4.100;2023-04-24T00:24:16;36.38;;;17.33;;
52268;SDS011;38224;50.950;4.100;2023-04-24T00:26:41;29.65;;;16.02;;
52268;SDS011;38224;50.950;4.100;2023-04-24T00:29:07;32.88;;;17.02;;
52268;SDS011;38224;50.950;4.100;2023-04-24T00:31:32;31.10;;;16.33;;
52268;SDS011;38224;50.950;4.100;2023-04-24T00:33:59;27.88;;;16.48;;
52268;SDS011;38224;50.950;4.100;2023-04-24T00:36:25;30.63;;;16.88;;
52268;SDS011;38224;50.950;4.100;2023-04-24T00:38:50;33.17;;;17.52;;
52268;SDS011;38224;50.950;4.100;2023-04-24T00:41:15;31.67;;;16.80;;
52268;SDS011;38224;50.950;4.100;2023-04-24T00:43:40;33.72;;;16.88;;
52268;SDS011;38224;50.950;4.100;2023-04-24T00:46:06;30.13;;;16.43;;
52268;SDS011;38224;50.950;4.100;2023-04-24T00:48:31;32.60;;;16.73;;
52268;SDS011;38224;50.950;4.100;2023-04-24T00:50:57;33.22;;;17.02;;
52268;SDS011;38224;50.950;4.100;2023-04-24T00:53:23;33.60;;;17.60;;
52268;SDS011;38224;50.950;4.100;2023-04-24T00:55:48;28.77;;;16.13;;
52268;SDS011;38224;50.950;4.100;2023-04-24T00:58:14;33.95;;;16.67;;
52268;SDS011;38224;50.950;4.100;2023-04-24T01:00:39;32.85;;;18.45;;
52268;SDS011;38224;50.950;4.100;2023-04-24T01:03:05;27.83;;;16.83;;
52268;SDS011;38224;50.950;4.100;2023-04-24T01:05:31;30.40;;;16.00;;
52268;SDS011;38224;50.950;4.100;2023-04-24T01:07:56;28.35;;;16.33;;
52268;SDS011;38224;50.950;4.100;2023-04-24T01:10:22;26.73;;;15.68;;
52268;SDS011;38224;50.950;4.100;2023-04-24T01:12:49;31.60;;;14.68;;
52268;SDS011;38224;50.950;4.100;2023-04-24T01:15:15;26.90;;;16.05;;
52268;SDS011;38224;50.950;4.100;2023-04-24T01:17:40;22.15;;;13.23;;
52268;SDS011;38224;50.950;4.100;2023-04-24T01:20:06;28.25;;;14.65;;
52268;SDS011;38224;50.950;4.100;2023-04-24T01:22:33;25.40;;;13.73;;
52268;SDS011;38224;50.950;4.100;2023-04-24T01:24:58;25.90;;;13.45;;
52268;SDS011;38224;50.950;4.100;2023-04-24T01:27:23;26.33;;;13.77;;
52268;SDS011;38224;50.950;4.100;2023-04-24T01:29:48;22.43;;;12.80;;
52268;SDS011;38224;50.950;4.100;2023-04-24T01:32:16;22.98;;;11.48;;
52268;SDS011;38224;50.950;4.100;2023-04-24T01:34:41;22.25;;;11.48;;
52268;SDS011;38224;50.950;4.100;2023-04-24T01:37:07;16.17;;;10.68;;
52268;SDS011;38224;50.950;4.100;2023-04-24T01:39:32;20.73;;;11.98;;
52268;SDS011;38224;50.950;4.100;2023-04-24T01:41:58;18.33;;;9.93;;
52268;SDS011;38224;50.950;4.100;2023-04-24T01:44:24;18.92;;;11.73;;
52268;SDS011;38224;50.950;4.100;2023-04-24T01:46:51;18.17;;;10.30;;
52268;SDS011;38224;50.950;4.100;2023-04-24T01:49:16;17.77;;;10.02;;
52268;SDS011;38224;50.950;4.100;2023-04-24T01:51:42;15.68;;;10.40;;
52268;SDS011;38224;50.950;4.100;2023-04-24T01:54:07;17.88;;;10.20;;
52268;SDS011;38224;50.950;4.100;2023-04-24T01:56:35;21.08;;;11.48;;
52268;SDS011;38224;50.950;4.100;2023-04-24T01:59:02;16.40;;;11.43;;
52268;SDS011;38224;50.950;4.100;2023-04-24T02:01:29;18.50;;;12.75;;
52268;SDS011;38224;50.950;4.100;2023-04-24T02:03:57;19.30;;;12.95;;
52268;SDS011;38224;50.950;4.100;2023-04-24T02:06:23;24.70;;;14.60;;
52268;SDS011;38224;50.950;4.100;2023-04-24T02:08:48;20.50;;;14.13;;
52268;SDS011;38224;50.950;4.100;2023-04-24T02:11:14;23.60;;;14.57;;
52268;SDS011;38224;50.950;4.100;2023-04-24T02:13:39;22.83;;;14.55;;
52268;SDS011;38224;50.950;4.100;2023-04-24T02:16:04;28.13;;;17.25;;
52268;SDS011;38224;50.950;4.100;2023-04-24T02:18:30;23.70;;;15.15;;
52268;SDS011;38224;50.950;4.100;2023-04-24T02:20:55;26.48;;;15.68;;
52268;SDS011;38224;50.950;4.100;2023-04-24T02:23:20;29.40;;;16.30;;
52268;SDS011;38224;50.950;4.100;2023-04-24T02:25:45;28.77;;;16.88;;
52268;SDS011;38224;50.950;4.100;2023-04-24T02:28:11;24.83;;;15.93;;
52268;SDS011;38224;50.950;4.100;2023-04-24T02:30:36;31.77;;;17.88;;
52268;SDS011;38224;50.950;4.100;2023-04-24T02:33:01;27.70;;;16.87;;
52268;SDS011;38224;50.950;4.100;2023-04-24T02:35:26;27.70;;;18.73;;
52268;SDS011;38224;50.950;4.100;2023-04-24T02:37:52;34.70;;;17.85;;
52268;SDS011;38224;50.950;4.100;2023-04-24T02:40:17;27.07;;;16.37;;
52268;SDS011;38224;50.950;4.100;2023-04-24T02:42:42;29.00;;;17.40;;
52268;SDS011;38224;50.950;4.100;2023-04-24T02:45:08;32.53;;;18.60;;
52268;SDS011;38224;50.950;4.100;2023-04-24T02:47:33;29.00;;;16.98;;
52268;SDS011;38224;50.950;4.100;2023-04-24T02:49:58;29.35;;;17.27;;
52268;SDS011;38224;50.950;4.100;2023-04-24T02:52:24;27.03;;;16.47;;
52268;SDS011;38224;50.950;4.100;2023-04-24T02:54:49;29.15;;;17.05;;
52268;SDS011;38224;50.950;4.100;2023-04-24T02:57:14;25.30;;;16.08;;
52268;SDS011;38224;50.950;4.100;2023-04-24T02:59:40;33.60;;;16.88;;
52268;SDS011;38224;50.950;4.100;2023-04-24T03:02:05;29.85;;;16.10;;
52268;SDS011;38224;50.950;4.100;2023-04-24T03:04:30;24.00;;;15.30;;
52268;SDS011;38224;50.950;4.100;2023-04-24T03:06:57;23.77;;;15.02;;
52268;SDS011;38224;50.950;4.100;2023-04-24T03:09:22;23.17;;;14.77;;
52268;SDS011;38224;50.950;4.100;2023-04-24T03:11:47;26.95;;;15.38;;
52268;SDS011;38224;50.950;4.100;2023-04-24T03:14:14;21.58;;;13.77;;
52268;SDS011;38224;50.950;4.100;2023-04-24T03:16:39;19.83;;;13.73;;
52268;SDS011;38224;50.950;4.100;2023-04-24T03:19:04;16.42;;;12.35;;
52268;SDS011;38224;50.950;4.100;2023-04-24T03:21:30;21.13;;;13.27;;
52268;SDS011;38224;50.950;4.100;2023-04-24T03:23:55;18.88;;;13.00;;
52268;SDS011;38224;50.950;4.100;2023-04-24T03:26:20;20.45;;;13.43;;
52268;SDS011;38224;50.950;4.100;2023-04-24T03:28:46;18.40;;;11.87;;
52268;SDS011;38224;50.950;4.100;2023-04-24T03:31:11;19.20;;;13.43;;
52268;SDS011;38224;50.950;4.100;2023-04-24T03:33:36;16.67;;;12.77;;
52268;SDS011;38224;50.950;4.100;2023-04-24T03:36:01;17.83;;;13.23;;
52268;SDS011;38224;50.950;4.100;2023-04-24T03:38:27;19.58;;;13.75;;
52268;SDS011;38224;50.950;4.100;2023-04-24T03:40:52;28.00;;;15.85;;
52268;SDS011;38224;50.950;4.100;2023-04-24T03:43:17;21.15;;;11.98;;
52268;SDS011;38224;50.950;4.100;2023-04-24T03:45:43;19.27;;;10.43;;
52268;SDS011;38224;50.950;4.100;2023-04-24T03:48:08;15.57;;;10.10;;
52268;SDS011;38224;50.950;4.100;2023-04-24T03:50:33;16.55;;;9.07;;
52268;SDS011;38224;50.950;4.100;2023-04-24T03:52:58;21.03;;;10.57;;
52268;SDS011;38224;50.950;4.100;2023-04-24T03:55:24;13.93;;;9.17;;
52268;SDS011;38224;50.950;4.100;2023-04-24T03:57:49;14.75;;;8.95;;
52268;SDS011;38224;50.950;4.100;2023-04-24T04:00:15;15.27;;;9.07;;
52268;SDS011;38224;50.950;4.100;2023-04-24T04:02:40;18.65;;;9.65;;
52268;SDS011;38224;50.950;4.100;2023-04-24T04:05:06;16.15;;;10.02;;
52268;SDS011;38224;50.950;4.100;2023-04-24T04:07:31;15.43;;;11.15;;
52268;SDS011;38224;50.950;4.100;2023-04-24T04:09:56;17.75;;;11.13;;
52268;SDS011;38224;50.950;4.100;2023-04-24T04:12:21;18.27;;;11.50;;
52268;SDS011;38224;50.950;4.100;2023-04-24T04:14:47;16.50;;;10.18;;
52268;SDS011;38224;50.950;4.100;2023-04-24T04:17:12;20.80;;;12.43;;
52268;SDS011;38224;50.950;4.100;2023-04-24T04:19:37;23.33;;;15.43;;
52268;SDS011;38224;50.950;4.100;2023-04-24T04:22:02;22.97;;;13.63;;
52268;SDS011;38224;50.950;4.100;2023-04-24T04:24:28;27.00;;;14.68;;
52268;SDS011;38224;50.950;4.100;2023-04-24T04:26:53;24.35;;;14.13;;
52268;SDS011;38224;50.950;4.100;2023-04-24T04:29:21;31.38;;;14.93;;
52268;SDS011;38224;50.950;4.100;2023-04-24T04:31:47;33.80;;;17.33;;
52268;SDS011;38224;50.950;4.100;2023-04-24T04:34:13;23.70;;;14.80;;
52268;SDS011;38224;50.950;4.100;2023-04-24T04:36:39;26.40;;;16.15;;
52268;SDS011;38224;50.950;4.100;2023-04-24T04:39:05;29.75;;;15.77;;
52268;SDS011;38224;50.950;4.100;2023-04-24T04:41:30;31.05;;;16.35;;
52268;SDS011;38224;50.950;4.100;2023-04-24T04:43:55;38.40;;;18.17;;
52268;SDS011;38224;50.950;4.100;2023-04-24T04:46:23;36.03;;;19.27;;
52268;SDS011;38224;50.950;4.100;2023-04-24T04:48:51;28.83;;;18.50;;
52268;SDS011;38224;50.950;4.100;2023-04-24T04:51:16;31.60;;;18.17;;
52268;SDS011;38224;50.950;4.100;2023-04-24T04:53:41;34.40;;;19.05;;
52268;SDS011;38224;50.950;4.100;2023-04-24T04:56:06;33.13;;;19.27;;
52268;SDS011;38224;50.950;4.100;2023-04-24T04:58:32;33.50;;;19.25;;
52268;SDS011;38224;50.950;4.100;2023-04-24T05:00:58;33.88;;;18.38;;
52268;SDS011;38224;50.950;4.100;2023-04-24T05:03:24;37.53;;;19.75;;
52268;SDS011;38224;50.950;4.100;2023-04-24T05:05:49;36.33;;;20.25;;
52268;SDS011;38224;50.950;4.100;2023-04-24T05:08:15;39.08;;;20.50;;
52268;SDS011;38224;50.950;4.100;2023-04-24T05:10:40;36.23;;;20.57;;
52268;SDS011;38224;50.950;4.100;2023-04-24T05:13:05;43.80;;;22.43;;
52268;SDS011;38224;50.950;4.100;2023-04-24T05:15:30;36.67;;;21.23;;
52268;SDS011;38224;50.950;4.100;2023-04-24T05:17:56;39.33;;;20.38;;
52268;SDS011;38224;50.950;4.100;2023-04-24T05:20:21;37.28;;;19.83;;
52268;SDS011;38224;50.950;4.100;2023-04-24T05:22:46;30.60;;;19.38;;
52268;SDS011;38224;50.950;4.100;2023-04-24T05:25:12;34.13;;;19.17;;
52268;SDS011;38224;50.950;4.100;2023-04-24T05:27:37;32.60;;;18.25;;
52268;SDS011;38224;50.950;4.100;2023-04-24T05:30:03;34.00;;;18.63;;
52268;SDS011;38224;50.950;4.100;2023-04-24T05:32:28;34.15;;;17.83;;
52268;SDS011;38224;50.950;4.100;2023-04-24T05:34:53;43.35;;;18.52;;
52268;SDS011;38224;50.950;4.100;2023-04-24T05:37:19;33.78;;;17.55;;
52268;SDS011;38224;50.950;4.100;2023-04-24T05:39:44;35.15;;;19.52;;
52268;SDS011;38224;50.950;4.100;2023-04-24T05:42:09;40.15;;;20.13;;
52268;SDS011;38224;50.950;4.100;2023-04-24T05:44:35;35.63;;;21.53;;
52268;SDS011;38224;50.950;4.100;2023-04-24T05:47:00;42.97;;;22.40;;
52268;SDS011;38224;50.950;4.100;2023-04-24T05:49:25;32.70;;;19.27;;
52268;SDS011;38224;50.950;4.100;2023-04-24T05:51:51;36.63;;;20.73;;
52268;SDS011;38224;50.950;4.100;2023-04-24T05:54:16;40.33;;;21.50;;
52268;SDS011;38224;50.950;4.100;2023-04-24T05:56:41;39.60;;;19.90;;
52268;SDS011;38224;50.950;4.100;2023-04-24T05:59:06;48.40;;;20.67;;
52268;SDS011;38224;50.950;4.100;2023-04-24T06:01:32;34.88;;;19.75;;
52268;SDS011;38224;50.950;4.100;2023-04-24T06:03:58;41.03;;;20.08;;
52268;SDS011;38224;50.950;4.100;2023-04-24T06:06:23;37.38;;;20.73;;
52268;SDS011;38224;50.950;4.100;2023-04-24T06:08:48;39.35;;;22.02;;
52268;SDS011;38224;50.950;4.100;2023-04-24T06:11:14;41.83;;;22.88;;
52268;SDS011;38224;50.950;4.100;2023-04-24T06:13:39;50.65;;;22.65;;
52268;SDS011;38224;50.950;4.100;2023-04-24T06:16:04;39.17;;;22.73;;
52268;SDS011;38224;50.950;4.100;2023-04-24T06:18:30;41.30;;;22.48;;
52268;SDS011;38224;50.950;4.100;2023-04-24T06:20:55;41.20;;;23.98;;
52268;SDS011;38224;50.950;4.100;2023-04-24T06:23:20;43.70;;;22.10;;
52268;SDS011;38224;50.950;4.100;2023-04-24T06:25:46;46.22;;;21.50;;
52268;SDS011;38224;50.950;4.100;2023-04-24T06:28:12;43.83;;;23.27;;
52268;SDS011;38224;50.950;4.100;2023-04-24T06:30:37;41.28;;;22.48;;
52268;SDS011;38224;50.950;4.100;2023-04-24T06:33:02;47.08;;;24.08;;
52268;SDS011;38224;50.950;4.100;2023-04-24T06:35:28;41.97;;;24.38;;
52268;SDS011;38224;50.950;4.100;2023-04-24T06:37:53;51.45;;;23.42;;
52268;SDS011;38224;50.950;4.100;2023-04-24T06:40:21;42.58;;;23.08;;
52268;SDS011;38224;50.950;4.100;2023-04-24T06:42:46;41.87;;;22.53;;
52268;SDS011;38224;50.950;4.100;2023-04-24T06:45:11;46.75;;;24.17;;
52268;SDS011;38224;50.950;4.100;2023-04-24T06:47:36;49.40;;;25.13;;
52268;SDS011;38224;50.950;4.100;2023-04-24T06:50:03;42.45;;;23.15;;
52268;SDS011;38224;50.950;4.100;2023-04-24T06:52:28;49.42;;;24.73;;
52268;SDS011;38224;50.950;4.100;2023-04-24T06:54:59;46.83;;;24.35;;
52268;SDS011;38224;50.950;4.100;2023-04-24T06:57:24;42.22;;;23.08;;
52268;SDS011;38224;50.950;4.100;2023-04-24T06:59:50;40.38;;;21.27;;
52268;SDS011;38224;50.950;4.100;2023-04-24T07:02:15;37.60;;;19.33;;
52268;SDS011;38224;50.950;4.100;2023-04-24T07:04:40;34.03;;;17.10;;
52268;SDS011;38224;50.950;4.100;2023-04-24T07:07:06;32.35;;;16.75;;
52268;SDS011;38224;50.950;4.100;2023-04-24T07:09:32;34.40;;;16.45;;
52268;SDS011;38224;50.950;4.100;2023-04-24T07:12:00;31.15;;;14.05;;
52268;SDS011;38224;50.950;4.100;2023-04-24T07:14:25;26.37;;;12.60;;
52268;SDS011;38224;50.950;4.100;2023-04-24T07:16:50;21.77;;;10.82;;
52268;SDS011;38224;50.950;4.100;2023-04-24T07:19:16;24.60;;;10.32;;
52268;SDS011;38224;50.950;4.100;2023-04-24T07:21:41;18.57;;;10.07;;
52268;SDS011;38224;50.950;4.100;2023-04-24T07:24:06;22.70;;;10.80;;
52268;SDS011;38224;50.950;4.100;2023-04-24T07:26:35;21.30;;;9.70;;
52268;SDS011;38224;50.950;4.100;2023-04-24T07:29:01;23.05;;;11.10;;
52268;SDS011;38224;50.950;4.100;2023-04-24T07:31:27;23.00;;;10.10;;
52268;SDS011;38224;50.950;4.100;2023-04-24T07:33:52;25.53;;;10.33;;
52268;SDS011;38224;50.950;4.100;2023-04-24T07:36:17;22.77;;;9.80;;
52268;SDS011;38224;50.950;4.100;2023-04-24T07:38:46;21.20;;;10.07;;
52268;SDS011;38224;50.950;4.100;2023-04-24T07:41:15;25.50;;;9.80;;
52268;SDS011;38224;50.950;4.100;2023-04-24T07:43:40;25.75;;;9.98;;
52268;SDS011;38224;50.950;4.100;2023-04-24T07:46:06;21.50;;;9.90;;
52268;SDS011;38224;50.950;4.100;2023-04-24T07:48:32;21.13;;;9.18;;
52268;SDS011;38224;50.950;4.100;2023-04-24T07:50:57;24.73;;;9.40;;
52268;SDS011;38224;50.950;4.100;2023-04-24T07:53:22;25.97;;;10.43;;
52268;SDS011;38224;50.950;4.100;2023-04-24T07:55:47;22.37;;;10.13;;
52268;SDS011;38224;50.950;4.100;2023-04-24T07:58:13;23.83;;;9.23;;
52268;SDS011;38224;50.950;4.100;2023-04-24T08:00:38;32.03;;;8.68;;
52268;SDS011;38224;50.950;4.100;2023-04-24T08:03:03;19.43;;;9.03;;
52268;SDS011;38224;50.950;4.100;2023-04-24T08:05:28;21.00;;;8.27;;
52268;SDS011;38224;50.950;4.100;2023-04-24T08:07:54;25.05;;;9.60;;
52268;SDS011;38224;50.950;4.100;2023-04-24T08:10:23;21.95;;;8.88;;
52268;SDS011;38224;50.950;4.100;2023-04-24T08:12:48;25.05;;;8.52;;
52268;SDS011;38224;50.950;4.100;2023-04-24T08:15:14;23.15;;;9.45;;
52268;SDS011;38224;50.950;4.100;2023-04-24T08:17:39;25.80;;;8.27;;
52268;SDS011;38224;50.950;4.100;2023-04-24T08:20:05;27.17;;;8.85;;
52268;SDS011;38224;50.950;4.100;2023-04-24T08:22:31;80.80;;;64.47;;
52268;SDS011;38224;50.950;4.100;2023-04-24T08:24:56;26.17;;;8.10;;
52268;SDS011;38224;50.950;4.100;2023-04-24T08:27:22;28.33;;;8.10;;
52268;SDS011;38224;50.950;4.100;2023-04-24T08:29:47;20.85;;;6.57;;
52268;SDS011;38224;50.950;4.100;2023-04-24T08:32:13;25.50;;;7.55;;
52268;SDS011;38224;50.950;4.100;2023-04-24T08:34:38;15.63;;;6.47;;
52268;SDS011;38224;50.950;4.100;2023-04-24T08:37:03;21.30;;;6.87;;
52268;SDS011;38224;50.950;4.100;2023-04-24T08:39:28;18.63;;;5.85;;
52268;SDS011;38224;50.950;4.100;2023-04-24T08:41:54;18.90;;;6.70;;
52268;SDS011;38224;50.950;4.100;2023-04-24T08:44:20;19.17;;;5.63;;
52268;SDS011;38224;50.950;4.100;2023-04-24T08:46:46;19.58;;;6.18;;
52268;SDS011;38224;50.950;4.100;2023-04-24T08:49:13;16.42;;;5.97;;
52268;SDS011;38224;50.950;4.100;2023-04-24T08:51:39;16.38;;;5.22;;
52268;SDS011;38224;50.950;4.100;2023-04-24T08:54:04;8.88;;;4.53;;
52268;SDS011;38224;50.950;4.100;2023-04-24T08:56:29;19.05;;;4.82;;
52268;SDS011;38224;50.950;4.100;2023-04-24T08:58:56;11.90;;;4.90;;
52268;SDS011;38224;50.950;4.100;2023-04-24T09:01:21;14.57;;;4.82;;
52268;SDS011;38224;50.950;4.100;2023-04-24T09:03:49;11.50;;;4.63;;
52268;SDS011;38224;50.950;4.100;2023-04-24T09:06:14;19.02;;;5.03;;
52268;SDS011;38224;50.950;4.100;2023-04-24T09:08:41;14.32;;;4.72;;
52268;SDS011;38224;50.950;4.100;2023-04-24T09:11:07;13.98;;;4.45;;
52268;SDS011;38224;50.950;4.100;2023-04-24T09:13:33;16.27;;;5.47;;
52268;SDS011;38224;50.950;4.100;2023-04-24T09:15:58;19.10;;;5.85;;
52268;SDS011;38224;50.950;4.100;2023-04-24T09:18:25;12.45;;;4.47;;
52268;SDS011;38224;50.950;4.100;2023-04-24T09:20:57;10.63;;;4.00;;
52268;SDS011;38224;50.950;4.100;2023-04-24T09:23:23;11.80;;;4.22;;
52268;SDS011;38224;50.950;4.100;2023-04-24T09:25:50;13.15;;;4.32;;
52268;SDS011;38224;50.950;4.100;2023-04-24T09:28:18;10.75;;;4.20;;
52268;SDS011;38224;50.950;4.100;2023-04-24T09:30:44;12.77;;;4.63;;
52268;SDS011;38224;50.950;4.100;2023-04-24T09:33:13;11.45;;;4.70;;
52268;SDS011;38224;50.950;4.100;2023-04-24T09:35:42;16.73;;;5.13;;
52268;SDS011;38224;50.950;4.100;2023-04-24T09:38:08;16.02;;;4.68;;
52268;SDS011;38224;50.950;4.100;2023-04-24T09:40:34;14.45;;;4.47;;
52268;SDS011;38224;50.950;4.100;2023-04-24T09:42:59;10.02;;;4.72;;
52268;SDS011;38224;50.950;4.100;2023-04-24T09:45:28;12.52;;;4.30;;
52268;SDS011;38224;50.950;4.100;2023-04-24T09:47:53;17.85;;;5.30;;
52268;SDS011;38224;50.950;4.100;2023-04-24T09:50:19;16.00;;;5.65;;
52268;SDS011;38224;50.950;4.100;2023-04-24T09:53:03;18.27;;;5.85;;
52268;SDS011;38224;50.950;4.100;2023-04-24T09:55:29;11.65;;;4.68;;
52268;SDS011;38224;50.950;4.100;2023-04-24T09:57:55;7.37;;;3.87;;
52268;SDS011;38224;50.950;4.100;2023-04-24T10:00:25;7.78;;;4.53;;
52268;SDS011;38224;50.950;4.100;2023-04-24T10:02:54;12.85;;;4.43;;
52268;SDS011;38224;50.950;4.100;2023-04-24T10:05:22;9.75;;;3.97;;
52268;SDS011;38224;50.950;4.100;2023-04-24T10:07:47;9.50;;;4.00;;
52268;SDS011;38224;50.950;4.100;2023-04-24T10:10:13;10.15;;;4.30;;
52268;SDS011;38224;50.950;4.100;2023-04-24T10:12:38;15.87;;;4.67;;
52268;SDS011;38224;50.950;4.100;2023-04-24T10:15:04;13.20;;;4.40;;
52268;SDS011;38224;50.950;4.100;2023-04-24T10:17:30;15.02;;;4.20;;
52268;SDS011;38224;50.950;4.100;2023-04-24T10:19:56;14.98;;;5.60;;
52268;SDS011;38224;50.950;4.100;2023-04-24T10:22:22;10.52;;;4.10;;
52268;SDS011;38224;50.950;4.100;2023-04-24T10:24:50;11.88;;;4.63;;
52268;SDS011;38224;50.950;4.100;2023-04-24T10:27:16;13.85;;;5.47;;
52268;SDS011;38224;50.950;4.100;2023-04-24T10:29:41;16.90;;;4.85;;
52268;SDS011;38224;50.950;4.100;2023-04-24T10:32:08;12.02;;;4.90;;
52268;SDS011;38224;50.950;4.100;2023-04-24T10:34:35;12.00;;;4.82;;
52268;SDS011;38224;50.950;4.100;2023-04-24T10:37:00;13.98;;;4.90;;
52268;SDS011;38224;50.950;4.100;2023-04-24T10:39:27;15.45;;;5.15;;
52268;SDS011;38224;50.950;4.100;2023-04-24T10:41:52;14.82;;;4.22;;
52268;SDS011;38224;50.950;4.100;2023-04-24T10:44:18;14.43;;;4.90;;
52268;SDS011;38224;50.950;4.100;2023-04-24T10:46:47;14.18;;;4.30;;
52268;SDS011;38224;50.950;4.100;2023-04-24T10:49:17;9.18;;;4.30;;
52268;SDS011;38224;50.950;4.100;2023-04-24T10:51:53;9.75;;;4.65;;
52268;SDS011;38224;50.950;4.100;2023-04-24T10:54:41;18.05;;;4.70;;
52268;SDS011;38224;50.950;4.100;2023-04-24T10:59:48;9.77;;;4.45;;
52268;SDS011;38224;50.950;4.100;2023-04-24T11:02:17;9.57;;;4.85;;
52268;SDS011;38224;50.950;4.100;2023-04-24T11:04:43;8.48;;;4.20;;
52268;SDS011;38224;50.950;4.100;2023-04-24T11:07:08;9.85;;;4.60;;
52268;SDS011;38224;50.950;4.100;2023-04-24T11:09:34;10.93;;;4.70;;
52268;SDS011;38224;50.950;4.100;2023-04-24T11:12:08;11.63;;;4.85;;
52268;SDS011;38224;50.950;4.100;2023-04-24T11:17:34;15.93;;;5.43;;
52268;SDS011;38224;50.950;4.100;2023-04-24T11:20:00;9.57;;;4.60;;
52268;SDS011;38224;50.950;4.100;2023-04-24T11:22:25;12.13;;;4.88;;
52268;SDS011;38224;50.950;4.100;2023-04-24T11:24:53;11.25;;;4.80;;
52268;SDS011;38224;50.950;4.100;2023-04-24T11:27:20;21.23;;;5.10;;
52268;SDS011;38224;50.950;4.100;2023-04-24T11:32:29;13.95;;;4.50;;
52268;SDS011;38224;50.950;4.100;2023-04-24T11:35:02;11.75;;;4.40;;
52268;SDS011;38224;50.950;4.100;2023-04-24T11:37:38;13.40;;;5.00;;
52268;SDS011;38224;50.950;4.100;2023-04-24T11:40:04;12.35;;;4.95;;
52268;SDS011;38224;50.950;4.100;2023-04-24T11:42:40;11.60;;;4.35;;
52268;SDS011;38224;50.950;4.100;2023-04-24T11:45:10;10.32;;;4.28;;
52268;SDS011;38224;50.950;4.100;2023-04-24T11:47:35;8.27;;;4.32;;
52268;SDS011;38224;50.950;4.100;2023-04-24T11:50:01;11.63;;;4.47;;
52268;SDS011;38224;50.950;4.100;2023-04-24T11:52:27;8.60;;;4.30;;
52268;SDS011;38224;50.950;4.100;2023-04-24T11:54:52;10.85;;;4.55;;
52268;SDS011;38224;50.950;4.100;2023-04-24T11:57:21;10.00;;;4.83;;
52268;SDS011;38224;50.950;4.100;2023-04-24T11:59:51;10.18;;;4.65;;
52268;SDS011;38224;50.950;4.100;2023-04-24T12:02:22;9.30;;;4.90;;
52268;SDS011;38224;50.950;4.100;2023-04-24T12:04:48;13.55;;;5.32;;
52268;SDS011;38224;50.950;4.100;2023-04-24T12:07:13;8.93;;;3.83;;
52268;SDS011;38224;50.950;4.100;2023-04-24T12:09:49;10.85;;;4.10;;
52268;SDS011;38224;50.950;4.100;2023-04-24T12:12:16;9.98;;;4.20;;
52268;SDS011;38224;50.950;4.100;2023-04-24T12:14:42;10.55;;;4.38;;
52268;SDS011;38224;50.950;4.100;2023-04-24T12:17:07;7.30;;;3.60;;
52268;SDS011;38224;50.950;4.100;2023-04-24T12:19:32;15.13;;;4.85;;
52268;SDS011;38224;50.950;4.100;2023-04-24T12:22:01;8.57;;;3.70;;
52268;SDS011;38224;50.950;4.100;2023-04-24T12:24:27;9.35;;;3.67;;
52268;SDS011;38224;50.950;4.100;2023-04-24T12:26:52;10.07;;;4.00;;
52268;SDS011;38224;50.950;4.100;2023-04-24T12:29:21;9.35;;;3.45;;
52268;SDS011;38224;50.950;4.100;2023-04-24T12:31:47;11.63;;;3.40;;
52268;SDS011;38224;50.950;4.100;2023-04-24T12:34:22;6.10;;;3.00;;
52268;SDS011;38224;50.950;4.100;2023-04-24T12:36:48;6.25;;;2.97;;
52268;SDS011;38224;50.950;4.100;2023-04-24T12:39:14;5.05;;;2.80;;
52268;SDS011;38224;50.950;4.100;2023-04-24T12:41:48;11.52;;;3.00;;
52268;SDS011;38224;50.950;4.100;2023-04-24T12:44:14;9.60;;;2.90;;
52268;SDS011;38224;50.950;4.100;2023-04-24T12:46:40;7.15;;;3.05;;
52268;SDS011;38224;50.950;4.100;2023-04-24T12:49:05;8.63;;;2.43;;
52268;SDS011;38224;50.950;4.100;2023-04-24T12:51:30;6.87;;;2.80;;
52268;SDS011;38224;50.950;4.100;2023-04-24T12:53:56;8.77;;;2.53;;
52268;SDS011;38224;50.950;4.100;2023-04-24T12:56:21;9.18;;;2.70;;
52268;SDS011;38224;50.950;4.100;2023-04-24T12:58:47;6.45;;;2.58;;
52268;SDS011;38224;50.950;4.100;2023-04-24T13:01:12;6.60;;;3.63;;
52268;SDS011;38224;50.950;4.100;2023-04-24T13:03:37;9.63;;;2.70;;
52268;SDS011;38224;50.950;4.100;2023-04-24T13:06:02;8.17;;;2.77;;
52268;SDS011;38224;50.950;4.100;2023-04-24T13:08:28;5.63;;;2.42;;
52268;SDS011;38224;50.950;4.100;2023-04-24T13:10:53;6.30;;;2.50;;
52268;SDS011;38224;50.950;4.100;2023-04-24T13:13:19;7.40;;;2.45;;
52268;SDS011;38224;50.950;4.100;2023-04-24T13:15:44;8.70;;;2.00;;
52268;SDS011;38224;50.950;4.100;2023-04-24T13:18:09;6.57;;;2.53;;
52268;SDS011;38224;50.950;4.100;2023-04-24T13:20:35;8.57;;;2.33;;
52268;SDS011;38224;50.950;4.100;2023-04-24T13:23:00;8.32;;;2.42;;
52268;SDS011;38224;50.950;4.100;2023-04-24T13:25:25;5.75;;;2.63;;
52268;SDS011;38224;50.950;4.100;2023-04-24T13:27:51;11.65;;;2.70;;
52268;SDS011;38224;50.950;4.100;2023-04-24T13:30:16;8.38;;;2.70;;
52268;SDS011;38224;50.950;4.100;2023-04-24T13:32:42;8.82;;;2.53;;
52268;SDS011;38224;50.950;4.100;2023-04-24T13:35:07;9.55;;;2.92;;
52268;SDS011;38224;50.950;4.100;2023-04-24T13:37:32;10.48;;;2.47;;
52268;SDS011;38224;50.950;4.100;2023-04-24T13:39:58;7.30;;;2.63;;
52268;SDS011;38224;50.950;4.100;2023-04-24T13:42:23;5.65;;;2.50;;
52268;SDS011;38224;50.950;4.100;2023-04-24T13:44:48;13.00;;;2.50;;
52268;SDS011;38224;50.950;4.100;2023-04-24T13:47:14;8.95;;;2.88;;
52268;SDS011;38224;50.950;4.100;2023-04-24T13:49:39;6.43;;;2.83;;
52268;SDS011;38224;50.950;4.100;2023-04-24T13:52:04;5.80;;;2.20;;
52268;SDS011;38224;50.950;4.100;2023-04-24T13:54:30;11.95;;;2.28;;
52268;SDS011;38224;50.950;4.100;2023-04-24T13:56:57;4.38;;;2.00;;
52268;SDS011;38224;50.950;4.100;2023-04-24T13:59:22;6.03;;;2.35;;
52268;SDS011;38224;50.950;4.100;2023-04-24T14:01:47;8.00;;;2.33;;
52268;SDS011;38224;50.950;4.100;2023-04-24T14:04:13;6.18;;;2.20;;
52268;SDS011;38224;50.950;4.100;2023-04-24T14:06:38;5.63;;;2.00;;
52268;SDS011;38224;50.950;4.100;2023-04-24T14:09:03;4.03;;;1.90;;
52268;SDS011;38224;50.950;4.100;2023-04-24T14:11:29;6.93;;;2.05;;
52268;SDS011;38224;50.950;4.100;2023-04-24T14:13:54;6.13;;;2.03;;
52268;SDS011;38224;50.950;4.100;2023-04-24T14:16:21;4.10;;;1.77;;
52268;SDS011;38224;50.950;4.100;2023-04-24T14:18:46;3.90;;;1.90;;
52268;SDS011;38224;50.950;4.100;2023-04-24T14:21:11;5.87;;;2.03;;
52268;SDS011;38224;50.950;4.100;2023-04-24T14:23:37;5.65;;;2.00;;
52268;SDS011;38224;50.950;4.100;2023-04-24T14:26:02;5.20;;;2.00;;
52268;SDS011;38224;50.950;4.100;2023-04-24T14:28:27;6.03;;;2.35;;
52268;SDS011;38224;50.950;4.100;2023-04-24T14:30:53;6.03;;;1.73;;
52268;SDS011;38224;50.950;4.100;2023-04-24T14:33:18;3.33;;;1.60;;